WetterOnline ( https://www.wetteronline.de )

Wetter aktuell Seelow

Aktuelles Wetter: Manschnow (16m)

6-stündlich | Neueste Meldungen
Ortszeit Temperatur Wetter
Fr, 09.12. 19:00 -2.8° C Nebel
Fr, 09.12. 13:00 -1.3° C Nebel
Fr, 09.12. 7:00 -3.5° C Nebel
Fr, 09.12. 1:00 -0.6° C bedeckt
Do, 08.12. 19:00 1.7° C wolkig
Do, 08.12. 13:00 3.5° C bedeckt
Do, 08.12. 7:00 0.3° C leichter Schneefall
Do, 08.12. 1:00 -0.6° C bedeckt
Ortszeit Temperatur Wetter
Fr, 09.12. 21:00 -2.4° C bedeckt
Fr, 09.12. 20:50 -2.4° C Dunst
Fr, 09.12. 20:40 -2.5° C Dunst
Fr, 09.12. 20:30 -2.7° C bedeckt
Fr, 09.12. 20:20 -2.7° C Dunst
Fr, 09.12. 20:10 -2.8° C Dunst
Fr, 09.12. 20:00 -2.9° C Nebel
Fr, 09.12. 19:30 -3.0° C Nebel
Fr, 09.12. 19:00 -2.8° C Nebel
Fr, 09.12. 18:30 -3.0° C Nebel
Fr, 09.12. 18:00 -2.8° C Nebel
Ortszeit Relative Feuchte Sichtweite
Fr, 09.12. 19:00 100% 0.2 km
Fr, 09.12. 13:00 99% 6 km
Fr, 09.12. 7:00 100% 100 m
Fr, 09.12. 1:00 96% 13 km
Do, 08.12. 19:00 95% 17 km
Do, 08.12. 13:00 89% 22 km
Do, 08.12. 7:00 98% 5.0 km
Do, 08.12. 1:00 90% 30 km
Ortszeit Relative Feuchte Sichtweite
Fr, 09.12. 21:00 99% 4.6 km
Fr, 09.12. 20:50 99% -
Fr, 09.12. 20:40 100% -
Fr, 09.12. 20:30 99% 3.2 km
Fr, 09.12. 20:20 99% -
Fr, 09.12. 20:10 100% -
Fr, 09.12. 20:00 99% 4.7 km
Fr, 09.12. 19:30 99% 1.9 km
Fr, 09.12. 19:00 100% 0.2 km
Fr, 09.12. 18:30 99% 100 m
Fr, 09.12. 18:00 99% 0.2 km
Ortszeit Niederschlagsmenge Niederschlagsart
Fr, 09.12. 19:00 0.0 l/m2 in 12 Std. -
Fr, 09.12. 13:00 0.0 l/m2 in 6 Std. -
Fr, 09.12. 7:00 0.0 l/m2 in 12 Std. -
Fr, 09.12. 1:00 0.0 l/m2 in 6 Std. -
Do, 08.12. 19:00 1 l/m2 in 12 Std. Regen
Do, 08.12. 13:00 0.1 l/m2 in 6 Std. Schnee, Regen
Do, 08.12. 7:00 0.4 l/m2 in 12 Std. Schnee
Do, 08.12. 1:00 0.0 l/m2 in 6 Std. -
Ortszeit Niederschlagsmenge Niederschlagsart
Fr, 09.12. 21:00 0.0 l/m2 in 1 Std. -
Fr, 09.12. 20:50 keine Meldung -
Fr, 09.12. 20:40 keine Meldung -
Fr, 09.12. 20:30 0.0 l/m2 in 1 Std. -
Fr, 09.12. 20:20 keine Meldung -
Fr, 09.12. 20:10 keine Meldung -
Fr, 09.12. 20:00 0.0 l/m2 in 1 Std. -
Fr, 09.12. 19:30 0.0 l/m2 in 1 Std. -
Fr, 09.12. 19:00 0.0 l/m2 in 1 Std. -
Fr, 09.12. 18:30 0.0 l/m2 in 1 Std. -
Fr, 09.12. 18:00 0.0 l/m2 in 1 Std. -
Ortszeit Stärke Spitze Richtung
km/h Bft. km/h Grad Sektor
Fr, 09.12. 19:00 4 1 14 100° O
Fr, 09.12. 13:00 7 2 18 140° SO
Fr, 09.12. 7:00 4 1 7 180° S
Fr, 09.12. 1:00 6 1 17 240° SW
Do, 08.12. 19:00 7 2 32 240° SW
Do, 08.12. 13:00 11 2 22 220° SW
Do, 08.12. 7:00 14 3 22 180° S
Do, 08.12. 1:00 7 2 30 240° SW
Ortszeit Stärke Spitze Richtung
km/h Bft. km/h Grad Sektor
Fr, 09.12. 21:00 4 1 7 360° N
Fr, 09.12. 20:50 4 1 - 360° N
Fr, 09.12. 20:40 4 1 - 320° NW
Fr, 09.12. 20:30 4 1 7 350° N
Fr, 09.12. 20:20 4 1 - 350° N
Fr, 09.12. 20:10 2 1 - 350° N
Fr, 09.12. 20:00 4 1 7 30° NO
Fr, 09.12. 19:30 4 1 7 40° NO
Fr, 09.12. 19:00 4 1 7 100° O
Fr, 09.12. 18:30 4 1 7 60° NO
Fr, 09.12. 18:00 4 1 11 50° NO
Ortszeit Untergrenze Bedeckung Gattung
total tief tief mittel hoch
Fr, 09.12. 19:00 <30 m 8/8 0/8 - - -
Fr, 09.12. 13:00 30 m 7/8 7/8 - - -
Fr, 09.12. 7:00 <30 m 8/8 0/8 - - -
Fr, 09.12. 1:00 2700 m 8/8 8/8 - - -
Do, 08.12. 19:00 930 m 8/8 3/8 - - -
Do, 08.12. 13:00 630 m 8/8 8/8 - - -
Do, 08.12. 7:00 210 m 7/8 7/8 - - -
Do, 08.12. 1:00 3000 m 8/8 8/8 - - -
Ortszeit Bedeckungsgrad in Achtel und Wolkenuntergrenze
Fr, 09.12. 21:00 6(30m) 8(600m)
Fr, 09.12. 20:50 6(30m) 8(600m)
Fr, 09.12. 20:40 8
Fr, 09.12. 20:30 8(30m) 8(570m)
Fr, 09.12. 20:20 8(30m) 8(570m)
Fr, 09.12. 20:10 8
Fr, 09.12. 20:00 8(60m) 8(510m)
Fr, 09.12. 19:30 8(30m)
Fr, 09.12. 19:00 8(<30m)
Fr, 09.12. 18:30 8(<30m)
Fr, 09.12. 18:00 8(<30m)
Ortszeit Luftdruck NN (hPa) Tendenz (hPa in 3 Std.)
Fr, 09.12. 19:00 1009 + 0,2
Fr, 09.12. 13:00 1009 - 0,6
Fr, 09.12. 7:00 1009 + 0,3
Fr, 09.12. 1:00 1008 + 0,6
Do, 08.12. 19:00 1007 + 0,6
Do, 08.12. 13:00 1006 - 1,1
Do, 08.12. 7:00 1007 - 1,9
Do, 08.12. 1:00 1009 + 0,1
Ortszeit Luftdruck NN (hPa) Tendenz (hPa in 3 Std.)
Fr, 09.12. 21:00 1009 + 0,4
Fr, 09.12. 20:50 1009 keine Meldung
Fr, 09.12. 20:40 1009 keine Meldung
Fr, 09.12. 20:30 1009 + 0,4
Fr, 09.12. 20:20 1009 keine Meldung
Fr, 09.12. 20:10 1009 keine Meldung
Fr, 09.12. 20:00 1009 + 0,5
Fr, 09.12. 19:30 1009 + 0,3
Fr, 09.12. 19:00 1009 + 0,2
Fr, 09.12. 18:30 1009 - 0,1
Fr, 09.12. 18:00 1009 + 0,1
Ortszeit Schneehöhe (cm)
Fr, 09.12. 19:00 0
Fr, 09.12. 13:00 0
Fr, 09.12. 7:00 0
Fr, 09.12. 1:00 0
Do, 08.12. 19:00 0
Do, 08.12. 13:00 0
Do, 08.12. 7:00 0
Do, 08.12. 1:00 0
Ortszeit Schneehöhe (cm)
Fr, 09.12. 21:00 0
Fr, 09.12. 20:50 0
Fr, 09.12. 20:40 0
Fr, 09.12. 20:30 0
Fr, 09.12. 20:20 0
Fr, 09.12. 20:10 0
Fr, 09.12. 20:00 0
Fr, 09.12. 19:30 0
Fr, 09.12. 19:00 0
Fr, 09.12. 18:30 0
Fr, 09.12. 18:00 0
Link zu dieser Seite / Seite empfehlen

Das Wetter in ...